CheckWX is a tool to help pilots better visualize weather data.  It is not intended as a substitute for an official pre-flight weather briefing.

01:12:15 UTC

KTOA METAR
Zamperini Field Airport
Torrance, California, USA
Current

25 mins ago

KTOA 200047Z 26015KT 10SM SCT010 21/17 A2990
Observed
Aug-20 @ 00:47 UTC
Wind
  • 260° at 15 KTS
Visibility
10 SM
Flight Rules
VFR
Cloud Levels
  • Scattered at 1,000' AGL
Temperature
21°C / 70°F
Dewpoint
17°C / 63°F
Humidity
78%
Altimeter
29.9" Hg
Pressure
1012.52 hPa
Previous

1 hour ago

KTOA 192347Z 27014KT 10SM SCT010 22/17 A2990
Observed
Aug-19 @ 23:47 UTC
Wind
  • 270° at 14 KTS
Visibility
10 SM
Flight Rules
VFR
Cloud Levels
  • Scattered at 1,000' AGL
Temperature
22°C / 72°F
Dewpoint
17°C / 63°F
Humidity
73%
Altimeter
29.9" Hg
Pressure
1012.52 hPa
Previous

2 hours ago

KTOA 192247Z 26013KT 10SM FEW010 23/17 A2992
Observed
Aug-19 @ 22:47 UTC
Wind
  • 260° at 13 KTS
Visibility
10 SM
Flight Rules
VFR
Cloud Levels
  • Few at 1,000' AGL
Temperature
23°C / 73°F
Dewpoint
17°C / 63°F
Humidity
69%
Altimeter
29.92" Hg
Pressure
1013.22 hPa